Accueil
METAR-TAF:

METAR-TAF

Aéroports :

Beauvechain, Belgique

Base aérienne de Beauvechain

latitude: 50-45N, longitude: 004-46E, altitude: 105 m

Observation

Le bulletin a été fait il y a 32 minutes, à 01:25 UTC
Vent 10 kt de sud-ouest
Température 14°C
Humidité 77%
Pression 1018 hPa
Visibilité 10 km ou plus

METAR: EBBE 240125Z AUTO 23010KT 9999 NCD 14/10 Q1018 BLU

Heure: 03:57 (01:57 UTC)

Prévision

Le bulletin a été fait il y a 10 heures et 16 minutes, à 15:41 UTC
Prévision valable du 23 à 19 UTC au 24 à 07 UTC
Vent 12 kt de ouest/sud-ouest
Visibilité 10 km ou plus
Quelques nuages à une hauteur de 25000 ft
Probabilité 30% :
Temporairement
du 24 à 03 UTC au 24 à 07 UTC
Nuages épars à une hauteur de 1500 ft

TAF: EBBE 231541Z 2319/2407 25012KT 9999 FEW250 PROB30 TEMPO 2403/2407 SCT015

Observations et prévisions météorologiques de plus de 4000 aéroports (messages METAR et TAF).

Les stations disponibles sont représentées par des disques jaunes et rouges sur la carte.

Passer la souris dessus pour voir le nom de la station.

Cliquer dessus pour voir les observations et prévisions météorologiques.

Pour changer de carte: cliquez sur les boutons verts avec une croix noire pour zoomer, sur le bouton vert avec un tiret pour effectuer un zoom arrière, ou sur les flèches vertes pour les cartes adjacentes.


METAR-TAF: